createdAt,value
2018-12-30T00:01:00.018Z,4.70
2018-12-30T00:03:47.855Z,6.17
2018-12-30T00:06:36.604Z,7.30
2018-12-30T00:09:24.866Z,4.87
2018-12-30T00:12:12.901Z,5.37
2018-12-30T00:15:02.018Z,5.33
2018-12-30T00:17:50.385Z,11.43
2018-12-30T00:20:38.804Z,7.97
2018-12-30T00:23:26.760Z,6.30
2018-12-30T00:26:15.050Z,7.33
2018-12-30T00:29:03.693Z,9.50
2018-12-30T00:31:54.111Z,14.60
2018-12-30T00:34:42.625Z,5.13
2018-12-30T00:37:31.178Z,4.70
2018-12-30T00:40:18.978Z,6.40
2018-12-30T00:43:07.514Z,11.57
2018-12-30T00:45:55.881Z,4.30
2018-12-30T00:48:43.988Z,4.70
2018-12-30T00:51:32.080Z,9.70
2018-12-30T00:54:19.685Z,5.27
2018-12-30T00:57:07.607Z,7.83
2018-12-30T00:59:55.654Z,6.23
2018-12-30T01:02:44.351Z,10.70
2018-12-30T01:05:32.445Z,6.77
2018-12-30T01:08:20.680Z,7.60
2018-12-30T01:11:08.629Z,8.87
2018-12-30T01:13:56.550Z,5.17
2018-12-30T01:16:44.287Z,7.37
2018-12-30T01:19:32.379Z,5.27
2018-12-30T01:22:20.395Z,5.10
2018-12-30T01:25:08.246Z,5.33
2018-12-30T01:27:55.934Z,6.73
2018-12-30T01:30:44.093Z,8.20
2018-12-30T01:33:31.993Z,5.23
2018-12-30T01:36:19.637Z,3.90
2018-12-30T01:39:08.538Z,9.33
2018-12-30T01:41:56.333Z,10.27
2018-12-30T01:44:44.024Z,8.00
2018-12-30T01:47:31.799Z,9.03
2018-12-30T01:50:19.701Z,11.10
2018-12-30T01:53:07.450Z,12.43
2018-12-30T01:55:55.155Z,11.87
2018-12-30T01:58:42.993Z,9.53
2018-12-30T02:01:30.772Z,15.33
2018-12-30T02:04:18.730Z,10.43
2018-12-30T02:07:06.721Z,10.87
2018-12-30T02:09:54.375Z,14.77
2018-12-30T02:12:42.771Z,15.60
2018-12-30T02:15:30.603Z,11.67
2018-12-30T02:18:18.562Z,17.70
2018-12-30T02:21:06.356Z,13.23
2018-12-30T02:23:54.185Z,24.30
2018-12-30T02:26:41.977Z,6.33
2018-12-30T02:29:30.119Z,21.23
2018-12-30T02:32:17.872Z,11.97
2018-12-30T02:35:05.869Z,10.33
2018-12-30T02:37:53.923Z,13.90
2018-12-30T02:40:41.686Z,16.57
2018-12-30T02:43:29.305Z,15.53
2018-12-30T02:46:17.455Z,15.57
2018-12-30T02:49:06.457Z,18.10
2018-12-30T02:51:54.190Z,26.47
2018-12-30T02:54:42.014Z,18.83
2018-12-30T02:57:29.998Z,16.60
2018-12-30T03:00:18.323Z,17.57
2018-12-30T03:03:06.416Z,17.70
2018-12-30T03:05:54.219Z,15.27
2018-12-30T03:08:42.160Z,15.87
2018-12-30T03:11:30.644Z,12.80
2018-12-30T03:14:18.518Z,15.23
2018-12-30T03:17:06.395Z,20.23
2018-12-30T03:19:54.703Z,17.33
2018-12-30T03:22:43.254Z,21.70
2018-12-30T03:25:31.113Z,14.03
2018-12-30T03:28:18.872Z,21.73
2018-12-30T03:31:06.449Z,14.13
2018-12-30T03:33:54.457Z,16.27
2018-12-30T03:36:42.430Z,17.43
2018-12-30T03:39:29.988Z,23.93
2018-12-30T03:42:17.871Z,16.33
2018-12-30T03:45:05.796Z,21.97
2018-12-30T03:47:53.733Z,23.73
2018-12-30T03:50:41.416Z,20.70
2018-12-30T03:53:29.498Z,29.07
2018-12-30T03:56:17.319Z,23.53
2018-12-30T03:59:05.318Z,17.30
2018-12-30T04:01:53.230Z,24.20
2018-12-30T04:04:41.210Z,23.23
2018-12-30T04:07:28.882Z,23.17
2018-12-30T04:10:16.615Z,25.87
2018-12-30T04:13:04.784Z,29.80
2018-12-30T04:15:52.710Z,24.03
2018-12-30T04:18:40.409Z,23.30
2018-12-30T04:21:28.271Z,20.97
2018-12-30T04:24:15.997Z,21.53
2018-12-30T04:27:04.142Z,23.60
2018-12-30T04:29:52.606Z,31.53
2018-12-30T04:32:40.179Z,20.77
2018-12-30T04:35:28.021Z,36.93
2018-12-30T04:38:16.038Z,28.97
2018-12-30T04:41:03.688Z,18.57
2018-12-30T04:43:51.819Z,29.17
2018-12-30T04:46:39.641Z,22.30
2018-12-30T04:49:27.770Z,25.33
2018-12-30T04:52:15.870Z,14.33
2018-12-30T04:55:04.288Z,18.33
2018-12-30T04:57:52.094Z,29.57
2018-12-30T05:00:39.735Z,24.50
2018-12-30T05:03:27.718Z,24.87
2018-12-30T05:06:15.814Z,18.37
2018-12-30T05:09:05.069Z,33.50
2018-12-30T05:11:53.169Z,24.20
2018-12-30T05:14:41.264Z,19.63
2018-12-30T05:17:29.642Z,21.20
2018-12-30T05:20:17.188Z,24.17
2018-12-30T05:23:05.389Z,15.30
2018-12-30T05:25:53.229Z,32.70
2018-12-30T05:28:41.063Z,17.83
2018-12-30T05:31:29.033Z,25.83
2018-12-30T05:34:16.907Z,27.30
2018-12-30T05:37:04.825Z,25.40
2018-12-30T05:39:52.848Z,15.07
2018-12-30T05:42:40.699Z,24.00
2018-12-30T05:45:28.766Z,27.27
2018-12-30T05:48:16.732Z,28.50
2018-12-30T05:51:04.765Z,26.63
2018-12-30T05:53:52.814Z,20.03
2018-12-30T05:56:40.978Z,14.13
2018-12-30T05:59:29.158Z,21.27
2018-12-30T06:02:16.884Z,22.53
2018-12-30T06:05:04.904Z,27.33
2018-12-30T06:07:52.686Z,18.97
2018-12-30T06:10:41.160Z,15.40
2018-12-30T06:13:40.059Z,16.10
2018-12-30T06:16:28.144Z,22.20
2018-12-30T06:19:16.237Z,17.67
2018-12-30T06:22:04.065Z,16.33
2018-12-30T06:24:56.059Z,19.57
2018-12-30T06:27:43.590Z,19.77
2018-12-30T06:30:33.421Z,12.73
2018-12-30T06:33:23.916Z,15.23
2018-12-30T06:36:12.294Z,14.07
2018-12-30T06:39:02.379Z,15.30
2018-12-30T06:41:50.214Z,16.67
2018-12-30T06:44:37.789Z,15.40
2018-12-30T06:47:25.865Z,15.00
2018-12-30T06:50:13.737Z,22.37
2018-12-30T06:53:01.708Z,11.07
2018-12-30T06:55:49.469Z,19.87
2018-12-30T06:58:37.109Z,14.03
2018-12-30T07:01:24.859Z,16.83
2018-12-30T07:04:12.427Z,12.57
2018-12-30T07:07:00.634Z,18.03
2018-12-30T07:09:48.694Z,20.33
2018-12-30T07:12:36.460Z,13.83
2018-12-30T07:15:24.294Z,17.90
2018-12-30T07:18:12.602Z,15.10
2018-12-30T07:21:00.430Z,18.53
2018-12-30T07:23:48.282Z,14.37
2018-12-30T07:26:35.914Z,20.30
2018-12-30T07:29:23.597Z,16.73
2018-12-30T07:32:11.645Z,20.60
2018-12-30T07:35:02.337Z,17.73
2018-12-30T07:37:50.109Z,20.23
2018-12-30T07:40:38.033Z,16.47
2018-12-30T07:43:29.052Z,17.33
2018-12-30T07:46:16.999Z,20.67
2018-12-30T07:49:05.188Z,13.67
2018-12-30T07:51:52.914Z,13.20
2018-12-30T07:54:40.743Z,13.10
2018-12-30T07:57:30.198Z,17.80
2018-12-30T08:00:18.223Z,12.60
2018-12-30T08:03:06.197Z,16.90
2018-12-30T08:05:54.208Z,29.63
2018-12-30T08:08:42.281Z,12.07
2018-12-30T08:11:30.123Z,11.43
2018-12-30T08:14:18.202Z,12.73
2018-12-30T08:17:05.924Z,17.03
2018-12-30T08:19:53.802Z,11.33
2018-12-30T08:22:41.766Z,9.57
2018-12-30T08:25:29.574Z,8.20
2018-12-30T08:28:24.799Z,13.07
2018-12-30T08:31:06.997Z,8.20
2018-12-30T08:33:54.633Z,10.77
2018-12-30T08:36:42.802Z,4.43
2018-12-30T08:39:33.645Z,13.50
2018-12-30T08:42:21.674Z,6.67
2018-12-30T08:45:10.079Z,8.37
2018-12-30T08:47:58.167Z,18.37
2018-12-30T08:50:46.053Z,12.10
2018-12-30T08:53:33.522Z,9.80
2018-12-30T08:56:21.489Z,15.30
2018-12-30T08:59:09.410Z,11.60
2018-12-30T09:01:57.347Z,11.53
2018-12-30T09:04:45.326Z,5.90
2018-12-30T09:07:33.523Z,15.93
2018-12-30T09:10:21.409Z,12.37
2018-12-30T09:13:09.292Z,7.57
2018-12-30T09:15:57.285Z,7.83
2018-12-30T09:18:45.005Z,9.07
2018-12-30T09:21:33.213Z,8.30
2018-12-30T09:24:23.611Z,11.93
2018-12-30T09:27:11.637Z,6.90
2018-12-30T09:30:04.762Z,6.67
2018-12-30T09:32:54.079Z,8.10
2018-12-30T09:35:44.892Z,6.27
2018-12-30T09:38:34.538Z,5.30
2018-12-30T09:41:22.562Z,6.00
2018-12-30T09:44:10.140Z,10.60
2018-12-30T09:46:57.714Z,5.00
2018-12-30T09:49:45.684Z,15.50
2018-12-30T09:52:34.353Z,7.90
2018-12-30T09:55:22.582Z,8.13
2018-12-30T09:58:10.409Z,6.30
2018-12-30T10:01:02.632Z,10.40
2018-12-30T10:03:52.511Z,16.30
2018-12-30T10:06:40.412Z,11.47
2018-12-30T10:09:28.665Z,8.80
2018-12-30T10:12:16.489Z,4.70
2018-12-30T10:15:09.608Z,10.77
2018-12-30T10:17:54.049Z,12.53
2018-12-30T10:20:42.218Z,8.73
2018-12-30T10:23:32.355Z,10.13
2018-12-30T10:26:23.914Z,10.83
2018-12-30T10:29:11.995Z,11.00
2018-12-30T10:32:00.383Z,9.87
2018-12-30T10:34:48.373Z,9.00
2018-12-30T10:37:36.397Z,10.53
2018-12-30T10:40:27.764Z,9.57
2018-12-30T10:43:16.011Z,6.50
2018-12-30T10:46:03.730Z,14.93
2018-12-30T10:48:51.715Z,10.57
2018-12-30T10:51:40.641Z,12.07
2018-12-30T10:54:33.971Z,12.33
2018-12-30T10:57:23.131Z,16.80
2018-12-30T11:00:11.525Z,7.67
2018-12-30T11:03:03.735Z,11.87
2018-12-30T11:05:58.486Z,9.27
2018-12-30T11:08:47.032Z,10.23
2018-12-30T11:11:36.570Z,8.07
2018-12-30T11:14:24.769Z,8.43
2018-12-30T11:17:12.737Z,11.07
2018-12-30T11:20:00.645Z,12.73
2018-12-30T11:22:48.588Z,9.73
2018-12-30T11:25:36.434Z,9.53
2018-12-30T11:28:26.933Z,8.67
2018-12-30T11:31:14.993Z,10.17
2018-12-30T11:34:03.151Z,13.00
2018-12-30T11:36:50.663Z,10.83
2018-12-30T11:39:38.422Z,6.13
2018-12-30T11:42:27.628Z,8.97
2018-12-30T11:45:15.486Z,12.50
2018-12-30T11:48:03.570Z,14.60
2018-12-30T11:50:51.315Z,7.17
2018-12-30T11:53:39.236Z,10.60
2018-12-30T11:56:27.259Z,16.87
2018-12-30T11:59:15.396Z,6.47
2018-12-30T12:02:03.315Z,12.83
2018-12-30T12:04:51.246Z,10.00
2018-12-30T12:07:39.131Z,10.53
2018-12-30T12:10:27.217Z,10.77
2018-12-30T12:13:15.366Z,5.73
2018-12-30T12:16:03.119Z,10.53
2018-12-30T12:18:52.289Z,7.93
2018-12-30T12:21:43.444Z,11.90
2018-12-30T12:24:31.432Z,9.33
2018-12-30T12:27:19.329Z,13.20
2018-12-30T12:30:13.025Z,17.37
2018-12-30T12:33:00.965Z,12.80
2018-12-30T12:35:48.798Z,11.27
2018-12-30T12:38:36.538Z,10.53
2018-12-30T12:41:25.506Z,13.50
2018-12-30T12:44:13.668Z,14.77
2018-12-30T12:47:04.614Z,16.60
2018-12-30T12:49:52.521Z,12.93
2018-12-30T12:52:40.748Z,12.87
2018-12-30T12:55:28.825Z,8.47
2018-12-30T12:58:17.060Z,20.63
2018-12-30T13:01:04.984Z,7.60
2018-12-30T13:03:53.052Z,17.10
2018-12-30T13:06:41.419Z,9.17
2018-12-30T13:09:29.110Z,16.10
2018-12-30T13:12:17.152Z,14.77
2018-12-30T13:15:05.422Z,14.10
2018-12-30T13:17:53.836Z,11.10
2018-12-30T13:20:44.951Z,14.57
2018-12-30T13:23:33.402Z,11.60
2018-12-30T13:26:21.432Z,7.40
2018-12-30T13:29:09.422Z,13.03
2018-12-30T13:31:58.294Z,11.50
2018-12-30T13:34:46.943Z,8.90
2018-12-30T13:37:35.302Z,5.33
2018-12-30T13:40:23.358Z,9.43
2018-12-30T13:43:11.243Z,7.43
2018-12-30T13:45:59.457Z,7.60
2018-12-30T13:48:47.717Z,14.00
2018-12-30T13:51:35.770Z,9.50
2018-12-30T13:54:23.890Z,10.13
2018-12-30T13:57:11.914Z,10.97
2018-12-30T14:00:00.431Z,10.20
2018-12-30T14:02:48.670Z,13.93
2018-12-30T14:05:36.591Z,10.93
2018-12-30T14:08:27.147Z,12.23
2018-12-30T14:11:14.941Z,15.80
2018-12-30T14:14:04.442Z,26.63
2018-12-30T14:16:52.948Z,16.10
2018-12-30T14:19:41.759Z,16.53
2018-12-30T14:22:30.318Z,10.43
2018-12-30T14:25:18.442Z,20.37
2018-12-30T14:28:08.827Z,9.80
2018-12-30T14:30:58.107Z,8.47
2018-12-30T14:33:46.026Z,10.07
2018-12-30T14:36:34.408Z,14.53
2018-12-30T14:39:22.611Z,14.67
2018-12-30T14:42:10.938Z,16.13
2018-12-30T14:44:59.151Z,8.73
2018-12-30T14:47:47.059Z,10.77
2018-12-30T14:50:35.630Z,9.27
2018-12-30T14:53:23.771Z,8.47
2018-12-30T14:56:11.914Z,14.87
2018-12-30T14:59:00.222Z,18.60
2018-12-30T15:01:48.315Z,12.23
2018-12-30T15:04:39.168Z,13.10
2018-12-30T15:07:28.152Z,18.63
2018-12-30T15:10:16.416Z,9.40
2018-12-30T15:13:04.627Z,10.13
2018-12-30T15:15:52.660Z,10.33
2018-12-30T15:18:40.954Z,17.50
2018-12-30T15:21:29.066Z,12.80
2018-12-30T15:24:17.200Z,11.63
2018-12-30T15:27:05.571Z,7.70
2018-12-30T15:29:53.639Z,9.70
2018-12-30T15:32:43.395Z,8.53
2018-12-30T15:35:31.744Z,9.10
2018-12-30T15:38:20.096Z,7.40
2018-12-30T15:41:08.024Z,10.30
2018-12-30T15:43:56.090Z,14.47
2018-12-30T15:46:44.312Z,10.10
2018-12-30T15:49:32.458Z,15.20
2018-12-30T15:52:20.354Z,7.17
2018-12-30T15:55:08.497Z,11.30
2018-12-30T15:57:56.073Z,5.57
2018-12-30T16:00:43.763Z,9.40
2018-12-30T16:03:31.727Z,10.47
2018-12-30T16:06:19.851Z,11.87
2018-12-30T16:09:08.702Z,10.97
2018-12-30T16:11:57.370Z,8.03
2018-12-30T16:14:45.122Z,17.77
2018-12-30T16:17:33.234Z,6.67
2018-12-30T16:20:21.458Z,9.70
2018-12-30T16:23:09.334Z,8.43
2018-12-30T16:25:57.410Z,11.77
2018-12-30T16:28:45.298Z,6.70
2018-12-30T16:31:33.222Z,14.87
2018-12-30T16:34:21.736Z,13.70
2018-12-30T16:37:09.939Z,6.50
2018-12-30T16:39:58.026Z,14.80
2018-12-30T16:42:46.069Z,14.83
2018-12-30T16:45:34.447Z,15.30
2018-12-30T16:48:22.751Z,14.70
2018-12-30T16:51:10.787Z,7.97
2018-12-30T16:54:02.479Z,12.20
2018-12-30T16:56:50.501Z,12.43
2018-12-30T16:59:38.815Z,10.80
2018-12-30T17:02:26.679Z,16.83
2018-12-30T17:05:15.090Z,11.93
2018-12-30T17:08:02.933Z,5.27
2018-12-30T17:10:50.726Z,8.90
2018-12-30T17:13:38.604Z,13.43
2018-12-30T17:16:26.754Z,13.30
2018-12-30T17:19:20.003Z,9.67
2018-12-30T17:22:08.038Z,10.37
2018-12-30T17:24:56.295Z,8.13
2018-12-30T17:27:44.506Z,16.03
2018-12-30T17:30:32.439Z,21.17
2018-12-30T17:33:20.657Z,7.40
2018-12-30T17:36:08.701Z,16.53
2018-12-30T17:38:57.222Z,6.53
2018-12-30T17:41:45.353Z,11.77
2018-12-30T17:44:33.245Z,11.00
2018-12-30T17:47:21.362Z,10.83
2018-12-30T17:50:12.286Z,9.70
2018-12-30T17:53:01.558Z,8.30
2018-12-30T17:55:50.929Z,16.20
2018-12-30T17:58:39.017Z,13.40
2018-12-30T18:01:27.210Z,13.23
2018-12-30T18:04:15.358Z,22.23
2018-12-30T18:07:02.982Z,12.67
2018-12-30T18:09:51.008Z,15.87
2018-12-30T18:12:38.660Z,15.67
2018-12-30T18:15:28.218Z,9.17
2018-12-30T18:18:16.833Z,17.20
2018-12-30T18:21:04.382Z,10.30
2018-12-30T18:23:51.970Z,9.93
2018-12-30T18:26:39.972Z,16.27
2018-12-30T18:29:27.918Z,9.47
2018-12-30T18:32:15.530Z,12.73
2018-12-30T18:35:03.263Z,15.10
2018-12-30T18:37:51.002Z,15.70
2018-12-30T18:40:39.381Z,26.13
2018-12-30T18:43:27.619Z,10.23
2018-12-30T18:46:15.154Z,13.77
2018-12-30T18:49:02.970Z,11.63
2018-12-30T18:51:50.982Z,11.27
2018-12-30T18:54:38.428Z,12.17
2018-12-30T18:57:25.964Z,22.30
2018-12-30T19:00:13.454Z,10.07
2018-12-30T19:03:01.738Z,9.90
2018-12-30T19:05:49.225Z,14.53
2018-12-30T19:08:36.693Z,12.90
2018-12-30T19:11:24.314Z,11.40
2018-12-30T19:14:12.003Z,16.53
2018-12-30T19:16:59.593Z,10.33
2018-12-30T19:19:47.355Z,13.83
2018-12-30T19:22:35.430Z,12.90
2018-12-30T19:25:22.950Z,12.50
2018-12-30T19:28:10.872Z,14.80
2018-12-30T19:30:58.690Z,13.63
2018-12-30T19:33:46.553Z,14.87
2018-12-30T19:36:33.993Z,9.70
2018-12-30T19:39:27.243Z,20.70
2018-12-30T19:42:15.141Z,13.40
2018-12-30T19:45:07.042Z,16.20
2018-12-30T19:47:55.104Z,18.67
2018-12-30T19:50:43.301Z,18.50
2018-12-30T19:53:34.073Z,16.93
2018-12-30T19:56:22.305Z,15.03
2018-12-30T19:59:10.078Z,14.30
2018-12-30T20:01:57.727Z,17.00
2018-12-30T20:04:48.705Z,16.93
2018-12-30T20:07:37.169Z,18.93
2018-12-30T20:10:25.438Z,16.10
2018-12-30T20:13:13.354Z,18.47
2018-12-30T20:16:01.276Z,12.13
2018-12-30T20:18:49.207Z,15.77
2018-12-30T20:21:37.106Z,12.00
2018-12-30T20:24:26.862Z,12.40
2018-12-30T20:27:14.609Z,15.30
2018-12-30T20:30:02.798Z,9.07
2018-12-30T20:32:50.882Z,19.33
2018-12-30T20:35:38.738Z,24.13
2018-12-30T20:38:26.870Z,12.50
2018-12-30T20:41:14.685Z,15.87
2018-12-30T20:44:02.831Z,12.80
2018-12-30T20:46:50.902Z,21.23
2018-12-30T20:49:41.673Z,11.17
2018-12-30T20:52:29.506Z,17.50
2018-12-30T20:55:19.488Z,15.30
2018-12-30T20:58:07.193Z,16.93
2018-12-30T21:00:55.093Z,21.70
2018-12-30T21:03:42.553Z,11.40
2018-12-30T21:06:30.613Z,16.63
2018-12-30T21:09:18.645Z,16.37
2018-12-30T21:12:06.491Z,21.73
2018-12-30T21:14:54.482Z,16.30
2018-12-30T21:17:42.165Z,19.87
2018-12-30T21:20:35.167Z,25.30
2018-12-30T21:23:23.353Z,14.87
2018-12-30T21:26:11.291Z,19.97
2018-12-30T21:28:59.431Z,13.63
2018-12-30T21:31:47.231Z,20.10
2018-12-30T21:34:34.903Z,17.43
2018-12-30T21:37:22.850Z,15.73
2018-12-30T21:40:10.426Z,19.10
2018-12-30T21:42:59.665Z,19.87
2018-12-30T21:45:47.370Z,18.40
2018-12-30T21:48:35.166Z,15.53
2018-12-30T21:51:22.781Z,15.73
2018-12-30T21:54:10.530Z,24.73
2018-12-30T21:56:58.524Z,18.73
2018-12-30T21:59:46.687Z,17.73
2018-12-30T22:02:34.169Z,20.87
2018-12-30T22:05:21.532Z,21.93
2018-12-30T22:08:09.768Z,24.93
2018-12-30T22:10:57.929Z,25.83
2018-12-30T22:13:45.489Z,20.07
2018-12-30T22:16:33.430Z,26.30
2018-12-30T22:19:21.350Z,16.13
2018-12-30T22:22:09.474Z,22.27
2018-12-30T22:24:58.538Z,26.43
2018-12-30T22:27:46.452Z,19.73
2018-12-30T22:30:34.487Z,19.00
2018-12-30T22:33:22.603Z,24.43
2018-12-30T22:36:10.438Z,21.93
2018-12-30T22:38:58.326Z,27.03
2018-12-30T22:41:45.882Z,22.90
2018-12-30T22:44:34.025Z,26.73
2018-12-30T22:47:21.733Z,18.90
2018-12-30T22:50:09.446Z,20.43
2018-12-30T22:52:57.122Z,24.47
2018-12-30T22:55:45.096Z,23.50
2018-12-30T22:58:32.977Z,29.13
2018-12-30T23:01:27.065Z,21.97
2018-12-30T23:04:15.277Z,19.57
2018-12-30T23:07:03.241Z,22.10
2018-12-30T23:09:50.793Z,26.30
2018-12-30T23:12:38.432Z,27.27
2018-12-30T23:15:26.095Z,28.83
2018-12-30T23:18:14.183Z,28.23
2018-12-30T23:21:12.307Z,27.53
2018-12-30T23:24:03.302Z,27.60
2018-12-30T23:26:51.346Z,27.70
2018-12-30T23:29:39.139Z,30.73
2018-12-30T23:32:26.735Z,32.17
2018-12-30T23:35:14.159Z,24.93
2018-12-30T23:38:01.824Z,21.57
2018-12-30T23:40:50.307Z,23.90
2018-12-30T23:43:38.208Z,21.53
2018-12-30T23:46:26.054Z,25.00
2018-12-30T23:49:13.708Z,30.30
2018-12-30T23:52:04.510Z,30.20
2018-12-30T23:54:53.421Z,32.93
2018-12-30T23:57:40.984Z,30.13
